sensor_id;sensor_type;location;lat;lon;timestamp;temperature;humidity
1680;DHT22;838;51.794;12.258;2024-03-17T00:01:02;7.40;7.60
1680;DHT22;838;51.794;12.258;2024-03-17T00:03:29;7.40;7.10
1680;DHT22;838;51.794;12.258;2024-03-17T00:06:01;7.40;6.30
1680;DHT22;838;51.794;12.258;2024-03-17T00:08:27;7.30;6.90
1680;DHT22;838;51.794;12.258;2024-03-17T00:10:54;7.20;6.40
1680;DHT22;838;51.794;12.258;2024-03-17T00:13:23;7.10;6.90
1680;DHT22;838;51.794;12.258;2024-03-17T00:15:50;6.90;6.90
1680;DHT22;838;51.794;12.258;2024-03-17T00:18:16;6.70;8.50
1680;DHT22;838;51.794;12.258;2024-03-17T00:20:42;6.60;9.80
1680;DHT22;838;51.794;12.258;2024-03-17T00:23:09;6.40;11.20
1680;DHT22;838;51.794;12.258;2024-03-17T00:25:37;6.10;12.90
1680;DHT22;838;51.794;12.258;2024-03-17T00:28:03;5.90;15.20
1680;DHT22;838;51.794;12.258;2024-03-17T00:30:29;5.70;15.40
1680;DHT22;838;51.794;12.258;2024-03-17T00:32:57;5.50;17.70
1680;DHT22;838;51.794;12.258;2024-03-17T00:35:23;5.50;17.50
1680;DHT22;838;51.794;12.258;2024-03-17T00:37:50;5.30;16.70
1680;DHT22;838;51.794;12.258;2024-03-17T00:40:19;5.00;19.20
1680;DHT22;838;51.794;12.258;2024-03-17T00:42:46;4.90;20.60
1680;DHT22;838;51.794;12.258;2024-03-17T00:45:11;5.00;20.70
1680;DHT22;838;51.794;12.258;2024-03-17T00:47:38;4.90;21.40
1680;DHT22;838;51.794;12.258;2024-03-17T00:50:04;5.00;22.00
1680;DHT22;838;51.794;12.258;2024-03-17T00:52:32;5.00;21.00
1680;DHT22;838;51.794;12.258;2024-03-17T00:54:57;5.00;22.40
1680;DHT22;838;51.794;12.258;2024-03-17T00:57:23;5.00;21.90
1680;DHT22;838;51.794;12.258;2024-03-17T00:59:50;5.20;22.50
1680;DHT22;838;51.794;12.258;2024-03-17T01:02:16;5.30;20.80
1680;DHT22;838;51.794;12.258;2024-03-17T01:04:42;5.40;21.20
1680;DHT22;838;51.794;12.258;2024-03-17T01:07:11;5.50;20.80
1680;DHT22;838;51.794;12.258;2024-03-17T01:09:38;5.60;20.40
1680;DHT22;838;51.794;12.258;2024-03-17T01:12:04;5.80;19.00
1680;DHT22;838;51.794;12.258;2024-03-17T01:14:30;5.80;18.50
1680;DHT22;838;51.794;12.258;2024-03-17T01:16:56;5.70;18.80
1680;DHT22;838;51.794;12.258;2024-03-17T01:19:23;5.70;19.50
1680;DHT22;838;51.794;12.258;2024-03-17T01:21:48;5.70;17.70
1680;DHT22;838;51.794;12.258;2024-03-17T01:24:14;5.70;18.10
1680;DHT22;838;51.794;12.258;2024-03-17T01:26:40;5.70;17.90
1680;DHT22;838;51.794;12.258;2024-03-17T01:29:06;5.80;17.30
1680;DHT22;838;51.794;12.258;2024-03-17T01:31:33;5.80;16.70
1680;DHT22;838;51.794;12.258;2024-03-17T01:33:58;5.80;15.40
1680;DHT22;838;51.794;12.258;2024-03-17T01:36:24;5.80;15.40
1680;DHT22;838;51.794;12.258;2024-03-17T01:38:50;5.80;15.10
1680;DHT22;838;51.794;12.258;2024-03-17T01:41:16;5.80;15.60
1680;DHT22;838;51.794;12.258;2024-03-17T01:43:41;5.90;15.10
1680;DHT22;838;51.794;12.258;2024-03-17T01:46:13;5.90;15.50
1680;DHT22;838;51.794;12.258;2024-03-17T01:48:39;6.00;15.60
1680;DHT22;838;51.794;12.258;2024-03-17T01:51:05;6.00;14.70
1680;DHT22;838;51.794;12.258;2024-03-17T01:53:32;5.90;14.90
1680;DHT22;838;51.794;12.258;2024-03-17T01:55:59;5.90;15.20
1680;DHT22;838;51.794;12.258;2024-03-17T01:58:30;5.90;14.40
1680;DHT22;838;51.794;12.258;2024-03-17T02:00:56;5.90;15.20
1680;DHT22;838;51.794;12.258;2024-03-17T02:03:22;5.80;15.70
1680;DHT22;838;51.794;12.258;2024-03-17T02:05:48;5.80;15.70
1680;DHT22;838;51.794;12.258;2024-03-17T02:08:14;5.60;15.90
1680;DHT22;838;51.794;12.258;2024-03-17T02:10:41;5.50;19.10
1680;DHT22;838;51.794;12.258;2024-03-17T02:13:07;5.50;19.80
1680;DHT22;838;51.794;12.258;2024-03-17T02:15:33;5.50;18.90
1680;DHT22;838;51.794;12.258;2024-03-17T02:17:59;5.60;19.20
1680;DHT22;838;51.794;12.258;2024-03-17T02:20:25;5.60;18.20
1680;DHT22;838;51.794;12.258;2024-03-17T02:23:11;5.40;16.50
1680;DHT22;838;51.794;12.258;2024-03-17T02:25:37;5.20;18.00
1680;DHT22;838;51.794;12.258;2024-03-17T02:28:03;5.00;18.50
1680;DHT22;838;51.794;12.258;2024-03-17T02:30:30;4.90;18.60
1680;DHT22;838;51.794;12.258;2024-03-17T02:32:56;4.90;19.30
1680;DHT22;838;51.794;12.258;2024-03-17T02:35:25;4.90;18.60
1680;DHT22;838;51.794;12.258;2024-03-17T02:37:50;5.00;18.00
1680;DHT22;838;51.794;12.258;2024-03-17T02:40:17;5.00;17.00
1680;DHT22;838;51.794;12.258;2024-03-17T02:42:43;4.80;17.30
1680;DHT22;838;51.794;12.258;2024-03-17T02:45:11;4.80;17.40
1680;DHT22;838;51.794;12.258;2024-03-17T02:47:40;4.70;18.00
1680;DHT22;838;51.794;12.258;2024-03-17T02:50:07;4.60;19.20
1680;DHT22;838;51.794;12.258;2024-03-17T02:52:34;4.70;20.10
1680;DHT22;838;51.794;12.258;2024-03-17T02:55:00;4.60;20.90
1680;DHT22;838;51.794;12.258;2024-03-17T02:57:26;4.70;23.00
1680;DHT22;838;51.794;12.258;2024-03-17T02:59:58;4.70;23.30
1680;DHT22;838;51.794;12.258;2024-03-17T03:02:24;4.80;22.90
1680;DHT22;838;51.794;12.258;2024-03-17T03:04:50;4.80;26.10
1680;DHT22;838;51.794;12.258;2024-03-17T03:07:16;4.80;25.20
1680;DHT22;838;51.794;12.258;2024-03-17T03:09:41;4.90;27.70
1680;DHT22;838;51.794;12.258;2024-03-17T03:12:07;5.10;26.10
1680;DHT22;838;51.794;12.258;2024-03-17T03:14:33;5.20;26.80
1680;DHT22;838;51.794;12.258;2024-03-17T03:17:00;5.40;26.80
1680;DHT22;838;51.794;12.258;2024-03-17T03:19:26;5.60;25.40
1680;DHT22;838;51.794;12.258;2024-03-17T03:21:52;5.60;23.90
1680;DHT22;838;51.794;12.258;2024-03-17T03:24:18;5.80;22.00
1680;DHT22;838;51.794;12.258;2024-03-17T03:26:44;6.00;21.30
1680;DHT22;838;51.794;12.258;2024-03-17T03:29:10;6.20;18.90
1680;DHT22;838;51.794;12.258;2024-03-17T03:31:36;6.30;17.80
1680;DHT22;838;51.794;12.258;2024-03-17T03:34:04;6.40;16.50
1680;DHT22;838;51.794;12.258;2024-03-17T03:36:33;6.40;18.40
1680;DHT22;838;51.794;12.258;2024-03-17T03:38:59;6.60;17.00
1680;DHT22;838;51.794;12.258;2024-03-17T03:41:25;6.60;16.50
1680;DHT22;838;51.794;12.258;2024-03-17T03:43:51;6.70;17.20
1680;DHT22;838;51.794;12.258;2024-03-17T03:46:17;6.80;16.50
1680;DHT22;838;51.794;12.258;2024-03-17T03:48:43;6.70;16.80
1680;DHT22;838;51.794;12.258;2024-03-17T03:51:10;6.40;21.50
1680;DHT22;838;51.794;12.258;2024-03-17T03:53:36;6.50;20.60
1680;DHT22;838;51.794;12.258;2024-03-17T03:56:04;6.50;21.00
1680;DHT22;838;51.794;12.258;2024-03-17T03:58:39;6.70;21.10
1680;DHT22;838;51.794;12.258;2024-03-17T04:01:09;6.90;19.10
1680;DHT22;838;51.794;12.258;2024-03-17T04:03:37;6.70;19.20
1680;DHT22;838;51.794;12.258;2024-03-17T04:06:04;6.60;20.80
1680;DHT22;838;51.794;12.258;2024-03-17T04:08:32;6.60;20.70
1680;DHT22;838;51.794;12.258;2024-03-17T04:10:58;6.70;20.50
1680;DHT22;838;51.794;12.258;2024-03-17T04:13:24;6.90;17.80
1680;DHT22;838;51.794;12.258;2024-03-17T04:15:49;6.80;19.50
1680;DHT22;838;51.794;12.258;2024-03-17T04:18:15;6.70;19.30
1680;DHT22;838;51.794;12.258;2024-03-17T04:20:43;6.60;20.10
1680;DHT22;838;51.794;12.258;2024-03-17T04:23:09;6.40;21.80
1680;DHT22;838;51.794;12.258;2024-03-17T04:25:34;6.30;23.20
1680;DHT22;838;51.794;12.258;2024-03-17T04:28:00;6.30;24.30
1680;DHT22;838;51.794;12.258;2024-03-17T04:30:25;6.50;23.70
1680;DHT22;838;51.794;12.258;2024-03-17T04:32:52;6.60;22.90
1680;DHT22;838;51.794;12.258;2024-03-17T04:35:18;6.60;21.60
1680;DHT22;838;51.794;12.258;2024-03-17T04:37:43;6.70;21.50
1680;DHT22;838;51.794;12.258;2024-03-17T04:40:09;6.80;21.00
1680;DHT22;838;51.794;12.258;2024-03-17T04:42:35;7.00;19.90
1680;DHT22;838;51.794;12.258;2024-03-17T04:45:01;7.10;18.30
1680;DHT22;838;51.794;12.258;2024-03-17T04:47:27;7.20;17.10
1680;DHT22;838;51.794;12.258;2024-03-17T04:49:53;7.10;17.40
1680;DHT22;838;51.794;12.258;2024-03-17T04:52:18;7.10;17.50
1680;DHT22;838;51.794;12.258;2024-03-17T04:54:44;7.20;16.60
1680;DHT22;838;51.794;12.258;2024-03-17T04:57:09;7.40;15.30
1680;DHT22;838;51.794;12.258;2024-03-17T04:59:35;7.40;13.30
1680;DHT22;838;51.794;12.258;2024-03-17T05:02:01;7.40;13.40
1680;DHT22;838;51.794;12.258;2024-03-17T05:04:28;7.30;14.70
1680;DHT22;838;51.794;12.258;2024-03-17T05:06:54;7.30;14.70
1680;DHT22;838;51.794;12.258;2024-03-17T05:09:20;7.30;15.50
1680;DHT22;838;51.794;12.258;2024-03-17T05:11:46;7.40;13.50
1680;DHT22;838;51.794;12.258;2024-03-17T05:14:13;7.30;14.90
1680;DHT22;838;51.794;12.258;2024-03-17T05:16:39;7.40;14.10
1680;DHT22;838;51.794;12.258;2024-03-17T05:19:05;7.40;14.30
1680;DHT22;838;51.794;12.258;2024-03-17T05:21:31;7.50;14.20
1680;DHT22;838;51.794;12.258;2024-03-17T05:23:57;7.50;13.60
1680;DHT22;838;51.794;12.258;2024-03-17T05:26:23;7.70;13.10
1680;DHT22;838;51.794;12.258;2024-03-17T05:28:50;7.60;13.10
1680;DHT22;838;51.794;12.258;2024-03-17T05:31:16;7.50;13.80
1680;DHT22;838;51.794;12.258;2024-03-17T05:33:44;7.50;13.50
1680;DHT22;838;51.794;12.258;2024-03-17T05:36:09;7.40;14.80
1680;DHT22;838;51.794;12.258;2024-03-17T05:38:35;7.30;15.60
1680;DHT22;838;51.794;12.258;2024-03-17T05:41:05;7.30;15.90
1680;DHT22;838;51.794;12.258;2024-03-17T05:43:32;7.40;15.50
1680;DHT22;838;51.794;12.258;2024-03-17T05:46:06;7.40;14.20
1680;DHT22;838;51.794;12.258;2024-03-17T05:48:41;7.20;16.60
1680;DHT22;838;51.794;12.258;2024-03-17T05:51:08;7.10;16.00
1680;DHT22;838;51.794;12.258;2024-03-17T05:53:34;7.30;15.10
1680;DHT22;838;51.794;12.258;2024-03-17T05:56:02;7.40;15.60
1680;DHT22;838;51.794;12.258;2024-03-17T05:58:28;7.50;15.10
1680;DHT22;838;51.794;12.258;2024-03-17T06:00:54;7.70;13.20
1680;DHT22;838;51.794;12.258;2024-03-17T06:03:19;7.70;13.90
1680;DHT22;838;51.794;12.258;2024-03-17T06:05:45;8.00;14.50
1680;DHT22;838;51.794;12.258;2024-03-17T06:08:12;8.10;11.40
1680;DHT22;838;51.794;12.258;2024-03-17T06:10:42;8.20;10.80
1680;DHT22;838;51.794;12.258;2024-03-17T06:13:08;8.40;9.30
1680;DHT22;838;51.794;12.258;2024-03-17T06:15:41;8.50;7.80
1680;DHT22;838;51.794;12.258;2024-03-17T06:18:08;8.60;9.80
1680;DHT22;838;51.794;12.258;2024-03-17T06:20:40;8.90;7.10
1680;DHT22;838;51.794;12.258;2024-03-17T06:23:07;9.30;5.00
1680;DHT22;838;51.794;12.258;2024-03-17T06:25:44;9.40;1.60
1680;DHT22;838;51.794;12.258;2024-03-17T06:28:11;9.30;1.10
1680;DHT22;838;51.794;12.258;2024-03-17T06:33:13;9.00;1.90
1680;DHT22;838;51.794;12.258;2024-03-17T06:35:39;8.80;3.10
1680;DHT22;838;51.794;12.258;2024-03-17T06:38:05;8.50;7.10
1680;DHT22;838;51.794;12.258;2024-03-17T06:40:30;8.40;7.80
1680;DHT22;838;51.794;12.258;2024-03-17T06:42:57;8.40;9.90
1680;DHT22;838;51.794;12.258;2024-03-17T06:45:23;8.70;8.30
1680;DHT22;838;51.794;12.258;2024-03-17T06:47:49;8.90;7.50
1680;DHT22;838;51.794;12.258;2024-03-17T06:50:15;8.90;4.80
1680;DHT22;838;51.794;12.258;2024-03-17T06:52:41;9.00;5.10
1680;DHT22;838;51.794;12.258;2024-03-17T06:55:07;9.10;5.30
1680;DHT22;838;51.794;12.258;2024-03-17T06:57:33;9.00;6.30
1680;DHT22;838;51.794;12.258;2024-03-17T07:00:00;9.00;4.80
1680;DHT22;838;51.794;12.258;2024-03-17T07:02:26;9.10;5.90
1680;DHT22;838;51.794;12.258;2024-03-17T07:04:51;9.00;6.00
1680;DHT22;838;51.794;12.258;2024-03-17T07:07:17;9.10;6.10
1680;DHT22;838;51.794;12.258;2024-03-17T07:09:42;8.80;6.40
1680;DHT22;838;51.794;12.258;2024-03-17T07:12:09;8.40;12.40
1680;DHT22;838;51.794;12.258;2024-03-17T07:14:35;8.70;11.70
1680;DHT22;838;51.794;12.258;2024-03-17T07:17:01;8.80;8.60
1680;DHT22;838;51.794;12.258;2024-03-17T07:19:27;8.70;10.60
1680;DHT22;838;51.794;12.258;2024-03-17T07:21:54;8.60;10.80
1680;DHT22;838;51.794;12.258;2024-03-17T07:24:20;8.80;10.90
1680;DHT22;838;51.794;12.258;2024-03-17T07:26:48;8.60;9.50
1680;DHT22;838;51.794;12.258;2024-03-17T07:29:14;8.50;11.70
1680;DHT22;838;51.794;12.258;2024-03-17T07:31:40;8.60;10.80
1680;DHT22;838;51.794;12.258;2024-03-17T07:34:06;8.70;10.00
1680;DHT22;838;51.794;12.258;2024-03-17T07:36:31;8.90;8.70
1680;DHT22;838;51.794;12.258;2024-03-17T07:38:57;9.00;8.60
1680;DHT22;838;51.794;12.258;2024-03-17T07:41:22;9.20;7.00
1680;DHT22;838;51.794;12.258;2024-03-17T07:43:50;9.00;7.20
1680;DHT22;838;51.794;12.258;2024-03-17T07:46:15;8.90;8.10
1680;DHT22;838;51.794;12.258;2024-03-17T07:48:43;8.90;7.60
1680;DHT22;838;51.794;12.258;2024-03-17T07:51:13;9.10;8.20
1680;DHT22;838;51.794;12.258;2024-03-17T07:53:40;9.10;7.40
1680;DHT22;838;51.794;12.258;2024-03-17T07:56:09;9.20;7.90
1680;DHT22;838;51.794;12.258;2024-03-17T07:58:37;9.60;6.20
1680;DHT22;838;51.794;12.258;2024-03-17T08:01:10;9.90;4.00
1680;DHT22;838;51.794;12.258;2024-03-17T08:03:37;10.10;1.00
1680;DHT22;838;51.794;12.258;2024-03-17T08:06:07;10.20;1.00
1680;DHT22;838;51.794;12.258;2024-03-17T08:08:34;10.40;1.00
1680;DHT22;838;51.794;12.258;2024-03-17T08:11:00;10.90;1.00
1680;DHT22;838;51.794;12.258;2024-03-17T08:13:29;11.40;1.00
1680;DHT22;838;51.794;12.258;2024-03-17T08:16:02;11.70;1.00
1680;DHT22;838;51.794;12.258;2024-03-17T08:18:28;11.60;1.00
1680;DHT22;838;51.794;12.258;2024-03-17T08:20:54;11.40;1.00
1680;DHT22;838;51.794;12.258;2024-03-17T08:23:20;11.00;1.00
1680;DHT22;838;51.794;12.258;2024-03-17T08:25:57;11.00;1.00
1680;DHT22;838;51.794;12.258;2024-03-17T08:28:24;11.00;1.00
1680;DHT22;838;51.794;12.258;2024-03-17T08:30:53;10.80;1.00
1680;DHT22;838;51.794;12.258;2024-03-17T08:33:19;10.40;1.00
1680;DHT22;838;51.794;12.258;2024-03-17T08:36:05;10.50;1.00
1680;DHT22;838;51.794;12.258;2024-03-17T08:38:31;11.10;1.00
1680;DHT22;838;51.794;12.258;2024-03-17T08:41:01;11.00;1.00
1680;DHT22;838;51.794;12.258;2024-03-17T08:43:28;11.30;1.00
1680;DHT22;838;51.794;12.258;2024-03-17T08:45:58;11.00;1.00
1680;DHT22;838;51.794;12.258;2024-03-17T08:48:25;11.80;1.00
1680;DHT22;838;51.794;12.258;2024-03-17T08:50:52;12.50;1.00
1680;DHT22;838;51.794;12.258;2024-03-17T08:53:21;12.40;1.00
1680;DHT22;838;51.794;12.258;2024-03-17T08:55:47;13.20;1.00
1680;DHT22;838;51.794;12.258;2024-03-17T08:58:13;13.50;1.00
1680;DHT22;838;51.794;12.258;2024-03-17T09:00:39;14.00;1.00
1680;DHT22;838;51.794;12.258;2024-03-17T09:03:07;14.90;1.00
1680;DHT22;838;51.794;12.258;2024-03-17T09:05:41;14.30;1.00
1680;DHT22;838;51.794;12.258;2024-03-17T09:08:07;15.00;1.00
1680;DHT22;838;51.794;12.258;2024-03-17T09:10:40;16.20;1.00
1680;DHT22;838;51.794;12.258;2024-03-17T09:13:06;16.50;1.00
1680;DHT22;838;51.794;12.258;2024-03-17T09:15:32;17.20;1.00
1680;DHT22;838;51.794;12.258;2024-03-17T09:17:58;17.50;1.00
1680;DHT22;838;51.794;12.258;2024-03-17T09:20:24;17.10;1.00
1680;DHT22;838;51.794;12.258;2024-03-17T09:22:50;16.30;1.00
1680;DHT22;838;51.794;12.258;2024-03-17T09:25:15;17.10;1.00
1680;DHT22;838;51.794;12.258;2024-03-17T09:27:42;18.10;1.00
1680;DHT22;838;51.794;12.258;2024-03-17T09:30:08;17.90;1.00
1680;DHT22;838;51.794;12.258;2024-03-17T09:32:36;17.50;1.00
1680;DHT22;838;51.794;12.258;2024-03-17T09:35:03;17.40;1.00
1680;DHT22;838;51.794;12.258;2024-03-17T09:37:29;15.90;1.00
1680;DHT22;838;51.794;12.258;2024-03-17T09:39:59;15.00;1.00
1680;DHT22;838;51.794;12.258;2024-03-17T09:42:26;15.20;1.00
1680;DHT22;838;51.794;12.258;2024-03-17T09:44:55;15.30;1.00
1680;DHT22;838;51.794;12.258;2024-03-17T09:47:23;14.40;1.00
1680;DHT22;838;51.794;12.258;2024-03-17T09:49:49;13.50;1.00
1680;DHT22;838;51.794;12.258;2024-03-17T09:52:25;13.50;1.00
1680;DHT22;838;51.794;12.258;2024-03-17T09:55:24;13.30;1.00
1680;DHT22;838;51.794;12.258;2024-03-17T09:57:49;13.60;1.00
1680;DHT22;838;51.794;12.258;2024-03-17T10:00:15;13.90;1.00
1680;DHT22;838;51.794;12.258;2024-03-17T10:02:46;13.40;1.00
1680;DHT22;838;51.794;12.258;2024-03-17T10:05:23;13.00;1.00
1680;DHT22;838;51.794;12.258;2024-03-17T10:07:50;12.80;1.00
1680;DHT22;838;51.794;12.258;2024-03-17T10:10:17;12.60;1.00
1680;DHT22;838;51.794;12.258;2024-03-17T10:12:50;12.30;1.00
1680;DHT22;838;51.794;12.258;2024-03-17T10:15:17;12.10;1.00
1680;DHT22;838;51.794;12.258;2024-03-17T10:17:44;12.20;1.00
1680;DHT22;838;51.794;12.258;2024-03-17T10:20:16;12.10;1.00
1680;DHT22;838;51.794;12.258;2024-03-17T10:23:02;12.10;1.00
1680;DHT22;838;51.794;12.258;2024-03-17T10:25:30;12.70;1.00
1680;DHT22;838;51.794;12.258;2024-03-17T10:27:56;12.40;1.00
1680;DHT22;838;51.794;12.258;2024-03-17T10:30:23;12.40;1.00
1680;DHT22;838;51.794;12.258;2024-03-17T10:32:56;12.10;1.00
1680;DHT22;838;51.794;12.258;2024-03-17T10:35:33;12.40;1.00
1680;DHT22;838;51.794;12.258;2024-03-17T10:38:03;11.90;1.00
1680;DHT22;838;51.794;12.258;2024-03-17T10:40:33;11.70;1.00
1680;DHT22;838;51.794;12.258;2024-03-17T10:43:02;11.30;1.00
1680;DHT22;838;51.794;12.258;2024-03-17T10:45:28;11.60;1.00
1680;DHT22;838;51.794;12.258;2024-03-17T10:48:02;11.80;1.00
1680;DHT22;838;51.794;12.258;2024-03-17T10:50:31;12.20;1.00
1680;DHT22;838;51.794;12.258;2024-03-17T10:53:02;12.70;1.00
1680;DHT22;838;51.794;12.258;2024-03-17T10:55:33;13.00;1.00
1680;DHT22;838;51.794;12.258;2024-03-17T10:58:08;12.70;1.00
1680;DHT22;838;51.794;12.258;2024-03-17T11:00:41;12.80;1.00
1680;DHT22;838;51.794;12.258;2024-03-17T11:03:08;12.80;1.00
1680;DHT22;838;51.794;12.258;2024-03-17T11:05:37;12.30;1.00
1680;DHT22;838;51.794;12.258;2024-03-17T11:08:04;12.10;1.00
1680;DHT22;838;51.794;12.258;2024-03-17T11:10:35;11.40;1.00
1680;DHT22;838;51.794;12.258;2024-03-17T11:13:03;11.10;1.00
1680;DHT22;838;51.794;12.258;2024-03-17T11:20:42;11.10;1.00
1680;DHT22;838;51.794;12.258;2024-03-17T11:23:09;11.60;1.00
1680;DHT22;838;51.794;12.258;2024-03-17T11:28:01;12.70;1.00
1680;DHT22;838;51.794;12.258;2024-03-17T11:30:49;13.30;1.00
1680;DHT22;838;51.794;12.258;2024-03-17T11:39:04;14.80;1.00
1680;DHT22;838;51.794;12.258;2024-03-17T11:41:46;14.40;1.00
1680;DHT22;838;51.794;12.258;2024-03-17T11:47:05;13.10;1.00
1680;DHT22;838;51.794;12.258;2024-03-17T11:49:39;13.00;1.00
1680;DHT22;838;51.794;12.258;2024-03-17T11:52:09;12.70;1.00
1680;DHT22;838;51.794;12.258;2024-03-17T11:54:37;12.40;1.00
1680;DHT22;838;51.794;12.258;2024-03-17T11:57:08;12.20;1.00
1680;DHT22;838;51.794;12.258;2024-03-17T11:59:35;12.00;1.00
1680;DHT22;838;51.794;12.258;2024-03-17T12:02:02;12.80;1.00
1680;DHT22;838;51.794;12.258;2024-03-17T12:04:28;13.40;1.00
1680;DHT22;838;51.794;12.258;2024-03-17T12:06:58;13.50;1.00
1680;DHT22;838;51.794;12.258;2024-03-17T12:09:31;13.70;1.00
1680;DHT22;838;51.794;12.258;2024-03-17T12:12:05;13.50;1.00
1680;DHT22;838;51.794;12.258;2024-03-17T12:14:35;13.80;1.00
1680;DHT22;838;51.794;12.258;2024-03-17T12:19:28;13.60;1.00
1680;DHT22;838;51.794;12.258;2024-03-17T12:21:59;13.60;1.00
1680;DHT22;838;51.794;12.258;2024-03-17T12:24:31;13.60;1.00
1680;DHT22;838;51.794;12.258;2024-03-17T12:26:58;13.40;1.00
1680;DHT22;838;51.794;12.258;2024-03-17T12:29:40;13.10;1.00
1680;DHT22;838;51.794;12.258;2024-03-17T12:32:22;12.70;1.00
1680;DHT22;838;51.794;12.258;2024-03-17T12:34:54;12.30;1.00
1680;DHT22;838;51.794;12.258;2024-03-17T12:37:24;12.20;1.00
1680;DHT22;838;51.794;12.258;2024-03-17T12:40:00;12.50;1.00
1680;DHT22;838;51.794;12.258;2024-03-17T12:42:27;12.90;1.00
1680;DHT22;838;51.794;12.258;2024-03-17T12:44:57;13.20;1.00
1680;DHT22;838;51.794;12.258;2024-03-17T12:47:25;13.40;1.00
1680;DHT22;838;51.794;12.258;2024-03-17T12:49:55;13.40;1.00
1680;DHT22;838;51.794;12.258;2024-03-17T12:52:22;13.10;1.00
1680;DHT22;838;51.794;12.258;2024-03-17T12:57:49;12.40;1.00
1680;DHT22;838;51.794;12.258;2024-03-17T13:00:34;12.50;1.00
1680;DHT22;838;51.794;12.258;2024-03-17T13:03:04;12.60;1.00
1680;DHT22;838;51.794;12.258;2024-03-17T13:05:34;12.40;1.00
1680;DHT22;838;51.794;12.258;2024-03-17T13:08:00;12.60;1.00
1680;DHT22;838;51.794;12.258;2024-03-17T13:10:28;13.00;1.00
1680;DHT22;838;51.794;12.258;2024-03-17T13:13:05;13.30;1.00
1680;DHT22;838;51.794;12.258;2024-03-17T13:15:33;13.40;1.00
1680;DHT22;838;51.794;12.258;2024-03-17T13:18:03;13.20;1.00
1680;DHT22;838;51.794;12.258;2024-03-17T13:20:32;13.00;1.00
1680;DHT22;838;51.794;12.258;2024-03-17T13:22:58;12.90;1.00
1680;DHT22;838;51.794;12.258;2024-03-17T13:25:28;13.00;1.00
1680;DHT22;838;51.794;12.258;2024-03-17T13:28:05;12.80;1.00
1680;DHT22;838;51.794;12.258;2024-03-17T13:30:33;13.00;1.00
1680;DHT22;838;51.794;12.258;2024-03-17T13:33:03;13.10;1.00
1680;DHT22;838;51.794;12.258;2024-03-17T13:35:35;13.30;1.00
1680;DHT22;838;51.794;12.258;2024-03-17T13:38:04;13.10;1.00
1680;DHT22;838;51.794;12.258;2024-03-17T13:40:32;12.80;1.00
1680;DHT22;838;51.794;12.258;2024-03-17T13:42:58;13.00;1.00
1680;DHT22;838;51.794;12.258;2024-03-17T13:45:27;13.20;1.00
1680;DHT22;838;51.794;12.258;2024-03-17T13:47:58;12.80;1.00
1680;DHT22;838;51.794;12.258;2024-03-17T13:50:25;12.70;1.00
1680;DHT22;838;51.794;12.258;2024-03-17T13:52:51;12.70;1.00
1680;DHT22;838;51.794;12.258;2024-03-17T13:55:21;12.40;1.00
1680;DHT22;838;51.794;12.258;2024-03-17T13:57:50;12.50;1.00
1680;DHT22;838;51.794;12.258;2024-03-17T14:00:28;12.60;1.00
1680;DHT22;838;51.794;12.258;2024-03-17T14:02:54;12.60;1.00
1680;DHT22;838;51.794;12.258;2024-03-17T14:05:23;12.40;1.00
1680;DHT22;838;51.794;12.258;2024-03-17T14:07:49;12.10;1.00
1680;DHT22;838;51.794;12.258;2024-03-17T14:10:18;11.80;1.00
1680;DHT22;838;51.794;12.258;2024-03-17T14:12:44;11.70;1.00
1680;DHT22;838;51.794;12.258;2024-03-17T14:15:12;11.80;1.00
1680;DHT22;838;51.794;12.258;2024-03-17T14:17:46;11.90;1.00
1680;DHT22;838;51.794;12.258;2024-03-17T14:20:13;12.10;1.00
1680;DHT22;838;51.794;12.258;2024-03-17T14:22:40;12.00;1.00
1680;DHT22;838;51.794;12.258;2024-03-17T14:25:08;12.20;1.00
1680;DHT22;838;51.794;12.258;2024-03-17T14:27:36;12.20;1.00
1680;DHT22;838;51.794;12.258;2024-03-17T14:30:02;11.90;1.00
1680;DHT22;838;51.794;12.258;2024-03-17T14:32:30;12.00;1.00
1680;DHT22;838;51.794;12.258;2024-03-17T14:34:55;12.00;1.00
1680;DHT22;838;51.794;12.258;2024-03-17T14:37:21;12.30;1.00
1680;DHT22;838;51.794;12.258;2024-03-17T14:39:48;12.10;1.00
1680;DHT22;838;51.794;12.258;2024-03-17T14:42:15;12.10;1.00
1680;DHT22;838;51.794;12.258;2024-03-17T14:44:41;12.20;1.00
1680;DHT22;838;51.794;12.258;2024-03-17T14:47:07;12.30;1.00
1680;DHT22;838;51.794;12.258;2024-03-17T14:49:33;12.30;1.00
1680;DHT22;838;51.794;12.258;2024-03-17T14:51:58;12.30;1.00
1680;DHT22;838;51.794;12.258;2024-03-17T14:54:25;12.30;1.00
1680;DHT22;838;51.794;12.258;2024-03-17T14:56:51;12.20;1.00
1680;DHT22;838;51.794;12.258;2024-03-17T14:59:19;12.20;1.00
1680;DHT22;838;51.794;12.258;2024-03-17T15:01:48;12.20;1.00
1680;DHT22;838;51.794;12.258;2024-03-17T15:04:14;11.90;1.00
1680;DHT22;838;51.794;12.258;2024-03-17T15:06:42;11.90;1.00
1680;DHT22;838;51.794;12.258;2024-03-17T15:09:11;11.80;1.00
1680;DHT22;838;51.794;12.258;2024-03-17T15:11:45;12.00;1.00
1680;DHT22;838;51.794;12.258;2024-03-17T15:14:11;12.00;1.00
1680;DHT22;838;51.794;12.258;2024-03-17T15:16:38;12.00;1.00
1680;DHT22;838;51.794;12.258;2024-03-17T15:19:07;11.80;1.00
1680;DHT22;838;51.794;12.258;2024-03-17T15:21:35;11.80;1.00
1680;DHT22;838;51.794;12.258;2024-03-17T15:24:01;11.80;1.00
1680;DHT22;838;51.794;12.258;2024-03-17T15:26:30;11.80;1.00
1680;DHT22;838;51.794;12.258;2024-03-17T15:28:55;12.00;1.00
1680;DHT22;838;51.794;12.258;2024-03-17T15:31:23;11.90;1.00
1680;DHT22;838;51.794;12.258;2024-03-17T15:33:50;11.70;1.00
1680;DHT22;838;51.794;12.258;2024-03-17T15:36:17;11.60;1.00
1680;DHT22;838;51.794;12.258;2024-03-17T15:38:42;11.70;1.00
1680;DHT22;838;51.794;12.258;2024-03-17T15:41:11;11.70;1.00
1680;DHT22;838;51.794;12.258;2024-03-17T15:43:38;11.60;1.00
1680;DHT22;838;51.794;12.258;2024-03-17T15:46:23;11.50;1.00
1680;DHT22;838;51.794;12.258;2024-03-17T15:48:49;11.50;1.00
1680;DHT22;838;51.794;12.258;2024-03-17T15:51:15;11.60;1.00
1680;DHT22;838;51.794;12.258;2024-03-17T15:53:44;11.70;1.00
1680;DHT22;838;51.794;12.258;2024-03-17T15:56:09;11.40;1.00
1680;DHT22;838;51.794;12.258;2024-03-17T15:58:36;11.30;1.00
1680;DHT22;838;51.794;12.258;2024-03-17T16:01:06;11.30;1.00
1680;DHT22;838;51.794;12.258;2024-03-17T16:03:34;11.40;1.00
1680;DHT22;838;51.794;12.258;2024-03-17T16:06:03;11.40;1.00
1680;DHT22;838;51.794;12.258;2024-03-17T16:08:40;11.20;1.00
1680;DHT22;838;51.794;12.258;2024-03-17T16:11:09;11.00;1.00
1680;DHT22;838;51.794;12.258;2024-03-17T16:13:39;11.00;1.00
1680;DHT22;838;51.794;12.258;2024-03-17T16:16:14;10.80;1.00
1680;DHT22;838;51.794;12.258;2024-03-17T16:18:41;10.80;1.00
1680;DHT22;838;51.794;12.258;2024-03-17T16:21:14;10.70;1.00
1680;DHT22;838;51.794;12.258;2024-03-17T16:23:48;10.60;1.00
1680;DHT22;838;51.794;12.258;2024-03-17T16:26:15;10.50;1.00
1680;DHT22;838;51.794;12.258;2024-03-17T16:28:41;10.60;1.00
1680;DHT22;838;51.794;12.258;2024-03-17T16:31:07;10.60;1.00
1680;DHT22;838;51.794;12.258;2024-03-17T16:33:36;10.60;1.00
1680;DHT22;838;51.794;12.258;2024-03-17T16:36:05;10.60;1.00
1680;DHT22;838;51.794;12.258;2024-03-17T16:38:34;10.70;1.00
1680;DHT22;838;51.794;12.258;2024-03-17T16:41:00;10.70;1.00
1680;DHT22;838;51.794;12.258;2024-03-17T16:49:09;10.90;1.00
1680;DHT22;838;51.794;12.258;2024-03-17T16:51:36;10.90;1.00
1680;DHT22;838;51.794;12.258;2024-03-17T16:54:02;10.70;1.00